createdAt,value
2022-12-03T00:01:49.086Z,12.63
2022-12-03T00:04:16.034Z,8.83
2022-12-03T00:06:42.919Z,10.03
2022-12-03T00:09:10.470Z,9.47
2022-12-03T00:11:38.120Z,9.40
2022-12-03T00:14:05.096Z,8.83
2022-12-03T00:16:34.051Z,8.47
2022-12-03T00:19:01.010Z,7.53
2022-12-03T00:21:29.505Z,7.33
2022-12-03T00:23:56.614Z,7.43
2022-12-03T00:26:23.554Z,8.53
2022-12-03T00:28:51.303Z,7.70
2022-12-03T00:31:18.776Z,7.83
2022-12-03T00:33:45.609Z,8.17
2022-12-03T00:36:12.445Z,7.63
2022-12-03T00:38:39.309Z,7.97
2022-12-03T00:41:06.156Z,7.43
2022-12-03T00:43:33.093Z,6.93
2022-12-03T00:46:00.296Z,9.73
2022-12-03T00:48:27.394Z,10.83
2022-12-03T00:50:54.273Z,9.80
2022-12-03T00:53:21.186Z,10.33
2022-12-03T00:55:50.646Z,9.77
2022-12-03T00:58:18.046Z,14.33
2022-12-03T01:00:44.932Z,9.97
2022-12-03T01:03:11.821Z,10.40
2022-12-03T01:05:38.762Z,10.87
2022-12-03T01:08:05.847Z,10.77
2022-12-03T01:10:32.781Z,10.77
2022-12-03T01:12:59.602Z,10.97
2022-12-03T01:15:26.434Z,9.67
2022-12-03T01:17:54.348Z,10.30
2022-12-03T01:20:21.256Z,11.23
2022-12-03T01:22:48.227Z,8.80
2022-12-03T01:25:15.170Z,9.97
2022-12-03T01:27:42.134Z,10.57
2022-12-03T01:30:09.760Z,10.63
2022-12-03T01:32:36.611Z,8.73
2022-12-03T01:35:04.952Z,9.57
2022-12-03T01:37:33.940Z,10.60
2022-12-03T01:40:00.764Z,9.13
2022-12-03T01:42:39.504Z,9.77
2022-12-03T01:45:07.362Z,9.70
2022-12-03T01:47:36.775Z,8.77
2022-12-03T01:50:30.444Z,10.07
2022-12-03T01:53:00.540Z,10.90
2022-12-03T01:55:27.769Z,10.57
2022-12-03T01:57:59.161Z,10.50
2022-12-03T02:00:27.766Z,10.27
2022-12-03T02:02:58.104Z,11.67
2022-12-03T02:05:30.048Z,10.13
2022-12-03T02:07:58.007Z,11.53
2022-12-03T02:10:34.567Z,11.23
2022-12-03T02:13:06.179Z,9.37
2022-12-03T02:15:33.338Z,10.47
2022-12-03T02:18:00.732Z,9.27
2022-12-03T02:20:27.839Z,9.17
2022-12-03T02:23:05.171Z,8.93
2022-12-03T02:25:34.710Z,9.57
2022-12-03T02:28:03.057Z,9.30
2022-12-03T02:30:31.335Z,8.83
2022-12-03T02:32:59.447Z,9.63
2022-12-03T02:35:30.263Z,11.10
2022-12-03T02:38:07.668Z,9.33
2022-12-03T02:40:34.740Z,11.03
2022-12-03T02:43:03.456Z,12.37
2022-12-03T02:45:42.893Z,11.60
2022-12-03T02:48:21.509Z,11.53
2022-12-03T02:50:58.901Z,12.80
2022-12-03T02:53:37.996Z,11.90
2022-12-03T02:56:05.598Z,13.03
2022-12-03T02:58:33.918Z,11.77
2022-12-03T03:01:03.973Z,11.20
2022-12-03T03:03:32.465Z,9.47
2022-12-03T03:06:02.387Z,9.53
2022-12-03T03:08:30.919Z,10.40
2022-12-03T03:11:00.589Z,9.50
2022-12-03T03:13:29.537Z,8.17
2022-12-03T03:15:56.660Z,8.43
2022-12-03T03:18:23.687Z,10.23
2022-12-03T03:20:50.610Z,8.90
2022-12-03T03:23:20.192Z,9.67
2022-12-03T03:25:54.052Z,9.47
2022-12-03T03:28:22.764Z,9.03
2022-12-03T03:30:49.793Z,9.70
2022-12-03T03:33:16.991Z,7.77
2022-12-03T03:35:45.401Z,8.20
2022-12-03T03:38:12.746Z,10.23
2022-12-03T03:40:39.932Z,10.60
2022-12-03T03:43:07.607Z,9.93
2022-12-03T03:45:34.764Z,8.90
2022-12-03T03:48:01.802Z,8.60
2022-12-03T03:50:30.951Z,8.60
2022-12-03T03:53:00.099Z,8.03
2022-12-03T03:55:27.466Z,9.70
2022-12-03T03:57:54.788Z,8.10
2022-12-03T04:00:22.022Z,10.17
2022-12-03T04:02:48.881Z,10.40
2022-12-03T04:05:19.167Z,9.83
2022-12-03T04:07:46.564Z,10.37
2022-12-03T04:10:33.131Z,10.50
2022-12-03T04:13:00.573Z,10.77
2022-12-03T04:15:28.518Z,11.33
2022-12-03T04:18:14.068Z,12.70
2022-12-03T04:20:41.716Z,10.63
2022-12-03T04:23:09.283Z,10.53
2022-12-03T04:25:55.023Z,10.03
2022-12-03T04:28:39.998Z,11.20
2022-12-03T04:31:25.912Z,14.17
2022-12-03T04:34:11.610Z,15.60
2022-12-03T04:36:38.675Z,13.60
2022-12-03T04:39:05.616Z,13.33
2022-12-03T04:41:32.581Z,10.77
2022-12-03T04:44:19.508Z,9.70
2022-12-03T04:46:46.310Z,9.33
2022-12-03T04:49:13.319Z,9.10
2022-12-03T04:51:40.174Z,8.63
2022-12-03T04:54:07.022Z,8.70
2022-12-03T04:56:33.888Z,8.27
2022-12-03T04:59:00.799Z,9.10
2022-12-03T05:01:27.852Z,9.23
2022-12-03T05:03:54.924Z,8.77
2022-12-03T05:06:21.991Z,7.73
2022-12-03T05:08:48.895Z,7.37
2022-12-03T05:11:15.838Z,7.67
2022-12-03T05:13:43.298Z,8.57
2022-12-03T05:16:10.537Z,8.47
2022-12-03T05:18:37.489Z,8.87
2022-12-03T05:21:04.497Z,9.97
2022-12-03T05:23:32.285Z,8.33
2022-12-03T05:25:59.126Z,10.20
2022-12-03T05:28:26.064Z,9.43
2022-12-03T05:30:53.058Z,9.90
2022-12-03T05:33:20.611Z,10.00
2022-12-03T05:35:47.862Z,11.13
2022-12-03T05:38:14.968Z,11.23
2022-12-03T05:40:42.116Z,12.03
2022-12-03T05:43:08.984Z,11.73
2022-12-03T05:45:38.875Z,11.67
2022-12-03T05:48:09.085Z,11.63
2022-12-03T05:50:38.395Z,14.97
2022-12-03T05:53:15.636Z,14.37
2022-12-03T05:55:42.617Z,13.97
2022-12-03T05:58:09.915Z,16.07
2022-12-03T06:00:42.329Z,14.53
2022-12-03T06:03:10.734Z,14.77
2022-12-03T06:05:37.977Z,15.40
2022-12-03T06:08:05.085Z,18.87
2022-12-03T06:10:32.573Z,22.13
2022-12-03T06:12:59.580Z,19.80
2022-12-03T06:15:26.929Z,15.53
2022-12-03T06:17:53.860Z,13.43
2022-12-03T06:20:21.529Z,14.20
2022-12-03T06:22:50.144Z,12.63
2022-12-03T06:25:17.425Z,12.07
2022-12-03T06:27:44.801Z,12.00
2022-12-03T06:30:14.858Z,13.63
2022-12-03T06:32:41.846Z,13.90
2022-12-03T06:40:24.459Z,15.13
2022-12-03T06:42:51.820Z,14.93
2022-12-03T06:45:26.226Z,14.57
2022-12-03T06:47:53.023Z,13.53
2022-12-03T06:50:19.844Z,10.57
2022-12-03T06:52:47.148Z,11.47
2022-12-03T06:55:14.156Z,9.97
2022-12-03T06:57:43.637Z,9.57
2022-12-03T07:00:11.158Z,9.07
2022-12-03T07:02:38.147Z,8.37
2022-12-03T07:05:05.646Z,9.00
2022-12-03T07:07:32.675Z,9.23
2022-12-03T07:09:59.798Z,8.80
2022-12-03T07:12:26.726Z,7.83
2022-12-03T07:14:54.016Z,8.63
2022-12-03T07:17:21.139Z,7.97
2022-12-03T07:19:49.639Z,9.63
2022-12-03T07:22:16.768Z,9.63
2022-12-03T07:24:43.862Z,9.73
2022-12-03T07:27:10.788Z,9.43
2022-12-03T07:29:37.688Z,8.97
2022-12-03T07:32:05.361Z,8.90
2022-12-03T07:34:32.258Z,10.53
2022-12-03T07:36:59.139Z,12.83
2022-12-03T07:39:26.186Z,12.90
2022-12-03T07:41:53.124Z,14.67
2022-12-03T07:44:20.009Z,15.40
2022-12-03T07:46:47.146Z,17.57
2022-12-03T07:49:14.155Z,16.47
2022-12-03T07:51:41.642Z,18.37
2022-12-03T07:54:08.882Z,15.57
2022-12-03T07:56:36.050Z,11.83
2022-12-03T07:59:03.049Z,10.77
2022-12-03T08:01:30.061Z,12.93
2022-12-03T08:03:57.264Z,13.00
2022-12-03T08:06:24.235Z,13.20
2022-12-03T08:08:51.619Z,15.67
2022-12-03T08:11:23.007Z,16.80
2022-12-03T08:13:49.871Z,19.17
2022-12-03T08:16:19.423Z,18.60
2022-12-03T08:18:47.560Z,19.37
2022-12-03T08:21:17.314Z,18.27
2022-12-03T08:23:44.333Z,18.30
2022-12-03T08:26:23.388Z,14.93
2022-12-03T08:28:51.411Z,12.57
2022-12-03T08:31:32.703Z,13.97
2022-12-03T08:34:20.689Z,17.57
2022-12-03T08:36:51.021Z,16.60
2022-12-03T08:39:34.361Z,17.07
2022-12-03T08:42:38.137Z,13.60
2022-12-03T08:45:32.575Z,12.63
2022-12-03T08:48:06.051Z,12.33
2022-12-03T08:50:39.418Z,13.10
2022-12-03T08:53:38.459Z,15.07
2022-12-03T08:56:33.247Z,12.87
2022-12-03T08:59:30.810Z,11.63
2022-12-03T09:02:00.836Z,12.03
2022-12-03T09:04:27.837Z,12.57
2022-12-03T09:06:55.556Z,15.10
2022-12-03T09:09:24.091Z,12.63
2022-12-03T09:11:51.203Z,13.53
2022-12-03T09:14:21.139Z,17.17
2022-12-03T09:16:49.235Z,13.73
2022-12-03T09:19:16.278Z,12.57
2022-12-03T09:21:43.841Z,11.20
2022-12-03T09:24:10.785Z,9.67
2022-12-03T09:26:37.873Z,10.33
2022-12-03T09:29:10.422Z,11.13
2022-12-03T09:31:39.068Z,10.10
2022-12-03T09:34:06.554Z,11.67
2022-12-03T09:36:33.865Z,10.07
2022-12-03T09:39:00.840Z,10.60
2022-12-03T09:41:27.871Z,10.00
2022-12-03T09:44:05.741Z,11.17
2022-12-03T09:46:36.288Z,11.33
2022-12-03T09:49:05.111Z,13.43
2022-12-03T09:51:35.342Z,13.20
2022-12-03T09:54:06.366Z,13.07
2022-12-03T09:56:37.698Z,13.47
2022-12-03T09:59:13.774Z,11.73
2022-12-03T10:01:40.965Z,11.23
2022-12-03T10:04:08.275Z,10.83
2022-12-03T10:06:37.138Z,7.57
2022-12-03T10:09:06.902Z,8.80
2022-12-03T10:11:35.770Z,10.27
2022-12-03T10:14:05.607Z,9.27
2022-12-03T10:16:36.448Z,9.03
2022-12-03T10:19:03.515Z,10.33
2022-12-03T10:21:39.156Z,11.90
2022-12-03T10:24:27.646Z,7.67
2022-12-03T10:26:57.925Z,7.67
2022-12-03T10:29:33.122Z,5.23
2022-12-03T10:32:02.367Z,5.40
2022-12-03T10:34:40.642Z,7.47
2022-12-03T10:37:18.139Z,5.77
2022-12-03T10:39:56.371Z,5.53
2022-12-03T10:42:25.589Z,7.10
2022-12-03T10:45:07.633Z,6.93
2022-12-03T10:47:34.617Z,6.00
2022-12-03T10:50:06.010Z,7.00
2022-12-03T10:52:32.957Z,6.10
2022-12-03T10:54:59.981Z,6.10
2022-12-03T10:57:26.877Z,6.60
2022-12-03T10:59:53.775Z,6.50
2022-12-03T11:02:24.770Z,5.77
2022-12-03T11:04:52.442Z,8.40
2022-12-03T11:07:21.541Z,10.00
2022-12-03T11:09:51.239Z,11.93
2022-12-03T11:12:22.663Z,9.87
2022-12-03T11:14:51.064Z,10.57
2022-12-03T11:17:40.480Z,10.50
2022-12-03T11:20:36.109Z,10.80
2022-12-03T11:23:02.998Z,9.80
2022-12-03T11:25:31.561Z,9.67
2022-12-03T11:28:10.355Z,9.17
2022-12-03T11:30:49.316Z,9.73
2022-12-03T11:33:27.623Z,8.67
2022-12-03T11:36:03.801Z,9.63
2022-12-03T11:38:59.909Z,9.90
2022-12-03T11:41:32.964Z,9.07
2022-12-03T11:44:25.300Z,8.73
2022-12-03T11:46:52.451Z,8.60
2022-12-03T11:49:45.803Z,11.73
2022-12-03T11:52:22.038Z,8.83
2022-12-03T11:54:53.362Z,6.73
2022-12-03T11:57:29.766Z,7.30
2022-12-03T11:59:58.934Z,5.97
2022-12-03T12:03:17.068Z,5.77
2022-12-03T12:05:45.242Z,5.63
2022-12-03T12:08:19.572Z,6.30
2022-12-03T12:10:48.780Z,7.47
2022-12-03T12:13:31.323Z,7.30
2022-12-03T12:16:02.657Z,6.70
2022-12-03T12:18:42.130Z,6.27
2022-12-03T12:21:44.262Z,7.33
2022-12-03T12:24:29.703Z,6.93
2022-12-03T12:26:58.556Z,6.77
2022-12-03T12:29:25.446Z,7.13
2022-12-03T12:31:59.632Z,6.57
2022-12-03T12:34:26.702Z,6.17
2022-12-03T12:36:57.158Z,7.30
2022-12-03T12:39:25.437Z,8.70
2022-12-03T12:41:52.893Z,7.07
2022-12-03T12:44:23.692Z,7.47
2022-12-03T12:46:53.758Z,7.03
2022-12-03T12:49:26.809Z,7.90
2022-12-03T12:51:53.945Z,7.20
2022-12-03T12:54:21.169Z,6.50
2022-12-03T12:56:50.386Z,7.43
2022-12-03T12:59:20.294Z,8.23
2022-12-03T13:01:49.226Z,8.17
2022-12-03T13:04:26.352Z,8.03
2022-12-03T13:06:54.189Z,8.53
2022-12-03T13:09:25.222Z,8.13
2022-12-03T13:11:54.169Z,7.50
2022-12-03T13:14:26.245Z,7.80
2022-12-03T13:16:55.280Z,7.47
2022-12-03T13:19:26.449Z,7.63
2022-12-03T13:22:00.149Z,7.50
2022-12-03T13:24:35.978Z,8.43
2022-12-03T13:27:31.904Z,7.13
2022-12-03T13:30:15.820Z,9.67
2022-12-03T13:32:43.676Z,8.97
2022-12-03T13:35:10.612Z,9.13
2022-12-03T13:37:38.529Z,10.60
2022-12-03T13:40:21.026Z,12.17
2022-12-03T13:42:48.579Z,11.50
2022-12-03T13:45:15.498Z,10.43
2022-12-03T13:47:49.189Z,11.50
2022-12-03T13:50:36.665Z,9.40
2022-12-03T13:53:26.692Z,10.00
2022-12-03T13:56:30.104Z,9.40
2022-12-03T13:59:00.169Z,8.47
2022-12-03T14:01:28.418Z,9.13
2022-12-03T14:03:55.422Z,9.63
2022-12-03T14:06:22.720Z,8.80
2022-12-03T14:08:49.605Z,9.23
2022-12-03T14:11:35.017Z,10.93
2022-12-03T14:14:02.024Z,9.07
2022-12-03T14:16:29.687Z,9.40
2022-12-03T14:18:56.520Z,8.70
2022-12-03T14:21:23.439Z,8.57
2022-12-03T14:23:50.332Z,9.60
2022-12-03T14:26:17.252Z,8.63
2022-12-03T14:28:44.099Z,9.23
2022-12-03T14:31:11.047Z,12.50
2022-12-03T14:33:37.985Z,12.47
2022-12-03T14:36:05.179Z,13.53
2022-12-03T14:38:32.164Z,10.83
2022-12-03T14:40:59.187Z,12.67
2022-12-03T14:43:26.070Z,11.50
2022-12-03T14:45:53.000Z,12.40
2022-12-03T14:48:21.104Z,10.07
2022-12-03T14:50:48.119Z,12.53
2022-12-03T14:53:15.001Z,12.87
2022-12-03T14:55:41.869Z,12.03
2022-12-03T14:58:08.708Z,11.07
2022-12-03T15:00:36.697Z,14.23
2022-12-03T15:03:03.730Z,13.87
2022-12-03T15:05:30.833Z,16.60
2022-12-03T15:07:57.836Z,14.47
2022-12-03T15:10:24.799Z,15.20
2022-12-03T15:19:33.273Z,12.80
2022-12-03T15:22:00.164Z,11.73
2022-12-03T15:24:27.091Z,12.47
2022-12-03T15:26:53.982Z,13.87
2022-12-03T15:29:21.021Z,14.87
2022-12-03T15:31:48.018Z,17.47
2022-12-03T15:34:20.460Z,17.10
2022-12-03T15:36:49.262Z,20.30
2022-12-03T15:39:16.143Z,13.57
2022-12-03T15:41:44.494Z,17.37
2022-12-03T15:44:11.385Z,18.27
2022-12-03T15:46:46.571Z,16.87
2022-12-03T15:49:14.366Z,14.23
2022-12-03T15:51:41.359Z,15.00
2022-12-03T15:54:09.008Z,11.70
2022-12-03T15:56:37.711Z,12.90
2022-12-03T15:59:04.765Z,12.30
2022-12-03T16:01:31.730Z,10.23
2022-12-03T16:03:58.681Z,9.57
2022-12-03T16:06:25.545Z,11.30
2022-12-03T16:08:52.363Z,11.37
2022-12-03T16:11:19.294Z,10.70
2022-12-03T16:13:46.247Z,10.70
2022-12-03T16:16:13.178Z,12.30
2022-12-03T16:18:40.143Z,14.83
2022-12-03T16:21:07.015Z,15.13
2022-12-03T16:23:34.043Z,16.23
2022-12-03T16:26:02.166Z,17.87
2022-12-03T16:28:29.072Z,18.13
2022-12-03T16:30:55.953Z,19.00
2022-12-03T16:33:27.560Z,17.87
2022-12-03T16:35:55.006Z,17.20
2022-12-03T16:38:21.931Z,19.13
2022-12-03T16:40:48.792Z,19.60
2022-12-03T16:43:16.015Z,19.33
2022-12-03T16:45:42.857Z,21.37
2022-12-03T16:48:09.767Z,23.30
2022-12-03T16:50:37.697Z,21.23
2022-12-03T16:53:04.617Z,22.60
2022-12-03T16:55:31.535Z,20.33
2022-12-03T16:57:58.451Z,20.30
2022-12-03T17:00:26.019Z,19.10
2022-12-03T17:02:53.015Z,18.83
2022-12-03T17:05:19.927Z,19.83
2022-12-03T17:07:46.935Z,21.50
2022-12-03T17:10:14.164Z,19.53
2022-12-03T17:13:08.210Z,20.37
2022-12-03T17:15:28.181Z,23.87
2022-12-03T17:17:55.149Z,23.83
2022-12-03T17:20:22.241Z,24.83
2022-12-03T17:22:49.284Z,25.13
2022-12-03T17:25:16.459Z,23.43
2022-12-03T17:27:45.466Z,23.10
2022-12-03T17:30:13.868Z,20.67
2022-12-03T17:32:40.784Z,18.63
2022-12-03T17:35:08.827Z,20.53
2022-12-03T17:37:36.173Z,19.27
2022-12-03T17:40:05.673Z,19.70
2022-12-03T17:42:32.592Z,18.47
2022-12-03T17:44:59.504Z,17.87
2022-12-03T17:47:26.348Z,18.43
2022-12-03T17:49:53.682Z,17.83
2022-12-03T17:52:20.914Z,17.47
2022-12-03T17:57:38.453Z,15.07
2022-12-03T18:00:08.577Z,14.63
2022-12-03T18:02:42.340Z,14.57
2022-12-03T18:05:10.130Z,14.73
2022-12-03T18:07:37.270Z,15.87
2022-12-03T18:10:04.694Z,15.27
2022-12-03T18:12:31.766Z,15.70
2022-12-03T18:14:58.650Z,15.37
2022-12-03T18:17:25.711Z,13.50
2022-12-03T18:19:52.951Z,10.47
2022-12-03T18:22:20.594Z,11.27
2022-12-03T18:24:51.530Z,11.83
2022-12-03T18:27:21.228Z,11.97
2022-12-03T18:29:48.720Z,10.33
2022-12-03T18:32:28.201Z,9.70
2022-12-03T18:34:57.046Z,9.87
2022-12-03T18:37:27.094Z,9.13
2022-12-03T18:39:55.235Z,9.13
2022-12-03T18:42:23.810Z,8.43
2022-12-03T18:44:52.803Z,8.87
2022-12-03T18:47:23.330Z,9.10
2022-12-03T18:49:51.187Z,7.67
2022-12-03T18:52:22.030Z,7.80
2022-12-03T18:54:49.313Z,8.33
2022-12-03T18:57:17.641Z,8.47
2022-12-03T18:59:44.654Z,9.20
2022-12-03T19:02:54.365Z,9.03
2022-12-03T19:05:11.111Z,10.30
2022-12-03T19:07:38.092Z,10.87
2022-12-03T19:10:05.867Z,9.87
2022-12-03T19:12:33.733Z,11.70
2022-12-03T19:15:01.139Z,10.43
2022-12-03T19:17:28.189Z,10.50
2022-12-03T19:19:55.705Z,9.77
2022-12-03T19:22:23.658Z,10.20
2022-12-03T19:24:50.717Z,10.37
2022-12-03T19:27:20.313Z,9.83
2022-12-03T19:29:50.344Z,9.30
2022-12-03T19:32:17.596Z,9.40
2022-12-03T19:34:44.476Z,10.97
2022-12-03T19:37:11.399Z,10.60
2022-12-03T19:39:38.453Z,11.77
2022-12-03T19:42:05.397Z,10.83
2022-12-03T19:44:32.900Z,10.30
2022-12-03T19:46:59.770Z,9.90
2022-12-03T19:49:27.259Z,10.90
2022-12-03T19:51:54.618Z,11.23
2022-12-03T19:54:21.494Z,10.77
2022-12-03T19:56:48.629Z,10.80
2022-12-03T19:59:15.806Z,10.87
2022-12-03T20:01:43.189Z,10.00
2022-12-03T20:04:11.134Z,10.30
2022-12-03T20:06:39.225Z,9.53
2022-12-03T20:09:17.633Z,10.40
2022-12-03T20:12:04.815Z,9.27
2022-12-03T20:29:41.976Z,8.67
2022-12-03T20:32:55.643Z,7.53
2022-12-03T20:35:23.588Z,8.37
2022-12-03T20:37:50.384Z,7.77
2022-12-03T20:40:17.572Z,8.50
2022-12-03T20:42:47.641Z,7.67
2022-12-03T20:45:15.117Z,8.20
2022-12-03T20:47:41.984Z,8.60
2022-12-03T20:50:09.219Z,8.83
2022-12-03T20:52:36.062Z,8.40
2022-12-03T20:55:02.896Z,9.70
2022-12-03T20:57:32.636Z,9.10
2022-12-03T20:59:59.613Z,11.00
2022-12-03T21:02:26.815Z,10.87
2022-12-03T21:04:53.844Z,9.77
2022-12-03T21:07:20.741Z,9.30
2022-12-03T21:09:47.580Z,10.43
2022-12-03T21:12:15.257Z,10.60
2022-12-03T21:14:42.274Z,11.73
2022-12-03T21:17:09.822Z,10.77
2022-12-03T21:19:38.761Z,13.37
2022-12-03T21:22:06.231Z,12.63
2022-12-03T21:24:33.675Z,13.77
2022-12-03T21:27:00.768Z,12.93
2022-12-03T21:29:27.641Z,12.50
2022-12-03T21:31:54.588Z,13.97
2022-12-03T21:34:21.660Z,13.63
2022-12-03T21:36:48.659Z,14.10
2022-12-03T21:39:15.597Z,14.67
2022-12-03T21:42:18.837Z,15.73
2022-12-03T21:44:29.355Z,16.40
2022-12-03T21:47:10.001Z,18.07
2022-12-03T21:49:41.484Z,17.23
2022-12-03T21:52:08.542Z,16.03
2022-12-03T21:54:35.509Z,17.30
2022-12-03T22:03:46.752Z,14.27
2022-12-03T22:06:14.377Z,14.47
2022-12-03T22:08:41.821Z,16.27
2022-12-03T22:11:15.079Z,16.77
2022-12-03T22:13:43.459Z,16.50
2022-12-03T22:16:16.286Z,15.57
2022-12-03T22:18:43.422Z,13.03
2022-12-03T22:21:13.240Z,13.43
2022-12-03T22:23:40.676Z,13.73
2022-12-03T22:26:12.028Z,13.70
2022-12-03T22:28:42.174Z,12.77
2022-12-03T22:31:09.751Z,13.97
2022-12-03T22:33:39.695Z,14.30
2022-12-03T22:36:13.407Z,15.30
2022-12-03T22:38:47.663Z,16.70
2022-12-03T22:41:15.746Z,15.67
2022-12-03T22:43:43.382Z,14.20
2022-12-03T22:46:12.754Z,14.93
2022-12-03T22:48:41.964Z,14.70
2022-12-03T22:51:26.795Z,15.53
2022-12-03T22:53:57.944Z,14.83
2022-12-03T22:56:26.168Z,14.33
2022-12-03T22:58:53.466Z,14.80
2022-12-03T23:01:23.041Z,14.37
2022-12-03T23:03:50.756Z,16.73
2022-12-03T23:06:18.699Z,13.67
2022-12-03T23:08:45.982Z,14.73
2022-12-03T23:11:12.903Z,13.97
2022-12-03T23:13:40.203Z,15.13
2022-12-03T23:16:08.852Z,14.80
2022-12-03T23:18:35.881Z,13.90
2022-12-03T23:21:02.818Z,13.53
2022-12-03T23:23:29.710Z,15.17
2022-12-03T23:26:04.388Z,14.47
2022-12-03T23:28:34.178Z,15.43
2022-12-03T23:31:01.247Z,14.70
2022-12-03T23:33:28.903Z,15.30
2022-12-03T23:35:55.781Z,16.37
2022-12-03T23:38:22.644Z,16.03
2022-12-03T23:40:49.759Z,17.37
2022-12-03T23:43:16.621Z,14.87
2022-12-03T23:45:43.478Z,15.90
2022-12-03T23:48:10.391Z,14.93
2022-12-03T23:50:41.319Z,15.03
2022-12-03T23:53:08.415Z,14.23
2022-12-03T23:55:39.281Z,15.97
2022-12-03T23:58:06.137Z,16.40
